sensor_id;sensor_type;location;lat;lon;timestamp;P1;durP1;ratioP1;P2;durP2;ratioP2
20399;SDS011;10359;53.596;22.520;2023-02-01T00:01:07;8.87;;;6.57;;
20399;SDS011;10359;53.596;22.520;2023-02-01T00:03:38;10.60;;;6.80;;
20399;SDS011;10359;53.596;22.520;2023-02-01T00:06:09;10.47;;;6.87;;
20399;SDS011;10359;53.596;22.520;2023-02-01T00:08:41;9.20;;;6.17;;
20399;SDS011;10359;53.596;22.520;2023-02-01T00:11:11;9.87;;;6.67;;
20399;SDS011;10359;53.596;22.520;2023-02-01T00:13:42;8.13;;;6.20;;
20399;SDS011;10359;53.596;22.520;2023-02-01T00:16:14;6.63;;;5.83;;
20399;SDS011;10359;53.596;22.520;2023-02-01T00:18:46;8.57;;;5.90;;
20399;SDS011;10359;53.596;22.520;2023-02-01T00:21:17;7.93;;;5.97;;
20399;SDS011;10359;53.596;22.520;2023-02-01T00:23:49;8.70;;;6.10;;
20399;SDS011;10359;53.596;22.520;2023-02-01T00:26:22;9.30;;;6.87;;
20399;SDS011;10359;53.596;22.520;2023-02-01T00:28:59;9.77;;;6.30;;
20399;SDS011;10359;53.596;22.520;2023-02-01T00:31:29;9.13;;;6.33;;
20399;SDS011;10359;53.596;22.520;2023-02-01T00:33:59;8.93;;;6.03;;
20399;SDS011;10359;53.596;22.520;2023-02-01T00:36:29;8.33;;;6.13;;
20399;SDS011;10359;53.596;22.520;2023-02-01T00:39:00;8.90;;;5.93;;
20399;SDS011;10359;53.596;22.520;2023-02-01T00:41:32;8.90;;;5.67;;
20399;SDS011;10359;53.596;22.520;2023-02-01T00:44:03;7.87;;;5.70;;
20399;SDS011;10359;53.596;22.520;2023-02-01T00:46:39;9.17;;;5.90;;
20399;SDS011;10359;53.596;22.520;2023-02-01T00:49:08;7.67;;;5.73;;
20399;SDS011;10359;53.596;22.520;2023-02-01T00:51:42;8.97;;;5.73;;
20399;SDS011;10359;53.596;22.520;2023-02-01T00:54:14;8.23;;;5.83;;
20399;SDS011;10359;53.596;22.520;2023-02-01T00:56:47;8.73;;;6.27;;
20399;SDS011;10359;53.596;22.520;2023-02-01T00:59:18;9.53;;;6.30;;
20399;SDS011;10359;53.596;22.520;2023-02-01T01:01:47;8.03;;;6.03;;
20399;SDS011;10359;53.596;22.520;2023-02-01T01:04:29;7.70;;;6.03;;
20399;SDS011;10359;53.596;22.520;2023-02-01T01:07:00;9.10;;;6.87;;
20399;SDS011;10359;53.596;22.520;2023-02-01T01:09:34;9.77;;;6.30;;
20399;SDS011;10359;53.596;22.520;2023-02-01T01:12:04;10.63;;;6.60;;
20399;SDS011;10359;53.596;22.520;2023-02-01T01:14:34;10.57;;;7.07;;
20399;SDS011;10359;53.596;22.520;2023-02-01T01:17:03;10.63;;;7.10;;
20399;SDS011;10359;53.596;22.520;2023-02-01T01:19:32;11.37;;;6.50;;
20399;SDS011;10359;53.596;22.520;2023-02-01T01:22:01;9.10;;;5.63;;
20399;SDS011;10359;53.596;22.520;2023-02-01T01:24:32;9.13;;;6.90;;
20399;SDS011;10359;53.596;22.520;2023-02-01T01:27:02;10.27;;;6.93;;
20399;SDS011;10359;53.596;22.520;2023-02-01T01:29:38;10.70;;;7.13;;
20399;SDS011;10359;53.596;22.520;2023-02-01T01:32:10;7.83;;;5.80;;
20399;SDS011;10359;53.596;22.520;2023-02-01T01:34:41;9.93;;;6.57;;
20399;SDS011;10359;53.596;22.520;2023-02-01T01:37:10;10.20;;;6.90;;
20399;SDS011;10359;53.596;22.520;2023-02-01T01:39:45;10.10;;;6.67;;
20399;SDS011;10359;53.596;22.520;2023-02-01T01:42:14;8.90;;;7.40;;
20399;SDS011;10359;53.596;22.520;2023-02-01T01:44:56;8.20;;;6.03;;
20399;SDS011;10359;53.596;22.520;2023-02-01T01:47:27;8.37;;;6.43;;
20399;SDS011;10359;53.596;22.520;2023-02-01T01:50:00;12.10;;;7.30;;
20399;SDS011;10359;53.596;22.520;2023-02-01T01:52:30;9.97;;;7.27;;
20399;SDS011;10359;53.596;22.520;2023-02-01T01:55:01;9.77;;;7.27;;
20399;SDS011;10359;53.596;22.520;2023-02-01T01:57:32;10.97;;;6.80;;
20399;SDS011;10359;53.596;22.520;2023-02-01T02:00:05;8.97;;;6.47;;
20399;SDS011;10359;53.596;22.520;2023-02-01T02:02:37;11.10;;;7.10;;
20399;SDS011;10359;53.596;22.520;2023-02-01T02:05:08;8.93;;;6.93;;
20399;SDS011;10359;53.596;22.520;2023-02-01T02:07:39;10.77;;;6.90;;
20399;SDS011;10359;53.596;22.520;2023-02-01T02:13:05;10.97;;;6.67;;
20399;SDS011;10359;53.596;22.520;2023-02-01T02:15:43;15.03;;;7.20;;
20399;SDS011;10359;53.596;22.520;2023-02-01T02:18:42;9.27;;;6.20;;
20399;SDS011;10359;53.596;22.520;2023-02-01T02:34:19;7.63;;;5.00;;
20399;SDS011;10359;53.596;22.520;2023-02-01T02:36:55;6.43;;;5.07;;
20399;SDS011;10359;53.596;22.520;2023-02-01T02:39:38;7.73;;;4.70;;
20399;SDS011;10359;53.596;22.520;2023-02-01T02:42:17;8.60;;;5.30;;
20399;SDS011;10359;53.596;22.520;2023-02-01T02:45:14;6.97;;;4.87;;
20399;SDS011;10359;53.596;22.520;2023-02-01T02:48:09;7.63;;;5.37;;
20399;SDS011;10359;53.596;22.520;2023-02-01T02:50:49;8.37;;;4.73;;
20399;SDS011;10359;53.596;22.520;2023-02-01T02:53:42;6.97;;;4.60;;
20399;SDS011;10359;53.596;22.520;2023-02-01T02:56:39;6.00;;;4.30;;
20399;SDS011;10359;53.596;22.520;2023-02-01T02:59:27;5.03;;;4.13;;
20399;SDS011;10359;53.596;22.520;2023-02-01T03:02:16;5.93;;;3.97;;
20399;SDS011;10359;53.596;22.520;2023-02-01T03:05:03;7.20;;;3.97;;
20399;SDS011;10359;53.596;22.520;2023-02-01T03:07:48;8.17;;;4.20;;
20399;SDS011;10359;53.596;22.520;2023-02-01T03:10:24;6.03;;;3.87;;
20399;SDS011;10359;53.596;22.520;2023-02-01T03:13:02;4.50;;;3.13;;
20399;SDS011;10359;53.596;22.520;2023-02-01T03:15:35;4.47;;;3.03;;
20399;SDS011;10359;53.596;22.520;2023-02-01T03:18:10;4.50;;;3.07;;
20399;SDS011;10359;53.596;22.520;2023-02-01T03:20:46;6.53;;;3.03;;
20399;SDS011;10359;53.596;22.520;2023-02-01T03:23:21;6.40;;;3.00;;
20399;SDS011;10359;53.596;22.520;2023-02-01T03:25:53;3.00;;;2.60;;
20399;SDS011;10359;53.596;22.520;2023-02-01T03:28:25;6.07;;;2.60;;
20399;SDS011;10359;53.596;22.520;2023-02-01T03:30:58;3.70;;;2.07;;
20399;SDS011;10359;53.596;22.520;2023-02-01T03:33:28;2.63;;;2.30;;
20399;SDS011;10359;53.596;22.520;2023-02-01T03:36:00;3.67;;;2.47;;
20399;SDS011;10359;53.596;22.520;2023-02-01T03:38:40;3.70;;;2.23;;
20399;SDS011;10359;53.596;22.520;2023-02-01T03:41:17;3.97;;;2.00;;
20399;SDS011;10359;53.596;22.520;2023-02-01T03:43:53;2.40;;;1.83;;
20399;SDS011;10359;53.596;22.520;2023-02-01T03:46:28;3.50;;;1.77;;
20399;SDS011;10359;53.596;22.520;2023-02-01T03:49:02;3.07;;;1.70;;
20399;SDS011;10359;53.596;22.520;2023-02-01T03:51:33;3.53;;;1.97;;
20399;SDS011;10359;53.596;22.520;2023-02-01T03:54:08;2.07;;;1.80;;
20399;SDS011;10359;53.596;22.520;2023-02-01T03:56:41;2.10;;;1.77;;
20399;SDS011;10359;53.596;22.520;2023-02-01T03:59:12;3.60;;;1.63;;
20399;SDS011;10359;53.596;22.520;2023-02-01T04:01:42;3.13;;;1.43;;
20399;SDS011;10359;53.596;22.520;2023-02-01T04:04:11;4.10;;;1.60;;
20399;SDS011;10359;53.596;22.520;2023-02-01T04:06:46;1.67;;;1.40;;
20399;SDS011;10359;53.596;22.520;2023-02-01T04:09:18;2.70;;;1.70;;
20399;SDS011;10359;53.596;22.520;2023-02-01T04:11:47;3.60;;;1.50;;
20399;SDS011;10359;53.596;22.520;2023-02-01T04:14:16;3.30;;;1.77;;
20399;SDS011;10359;53.596;22.520;2023-02-01T04:16:45;3.70;;;1.57;;
20399;SDS011;10359;53.596;22.520;2023-02-01T04:19:14;2.40;;;1.43;;
20399;SDS011;10359;53.596;22.520;2023-02-01T04:21:43;5.07;;;1.80;;
20399;SDS011;10359;53.596;22.520;2023-02-01T04:24:13;2.13;;;1.70;;
20399;SDS011;10359;53.596;22.520;2023-02-01T04:26:43;2.67;;;1.47;;
20399;SDS011;10359;53.596;22.520;2023-02-01T04:29:12;3.77;;;1.40;;
20399;SDS011;10359;53.596;22.520;2023-02-01T04:31:41;3.07;;;1.60;;
20399;SDS011;10359;53.596;22.520;2023-02-01T04:34:10;2.90;;;1.53;;
20399;SDS011;10359;53.596;22.520;2023-02-01T04:36:39;4.70;;;1.57;;
20399;SDS011;10359;53.596;22.520;2023-02-01T04:39:11;3.77;;;1.87;;
20399;SDS011;10359;53.596;22.520;2023-02-01T04:41:41;3.00;;;1.40;;
20399;SDS011;10359;53.596;22.520;2023-02-01T04:44:12;4.00;;;1.40;;
20399;SDS011;10359;53.596;22.520;2023-02-01T04:46:43;3.00;;;1.40;;
20399;SDS011;10359;53.596;22.520;2023-02-01T04:49:14;2.80;;;1.20;;
20399;SDS011;10359;53.596;22.520;2023-02-01T04:51:43;3.80;;;1.80;;
20399;SDS011;10359;53.596;22.520;2023-02-01T04:54:12;2.73;;;1.40;;
20399;SDS011;10359;53.596;22.520;2023-02-01T04:56:43;4.43;;;1.70;;
20399;SDS011;10359;53.596;22.520;2023-02-01T04:59:12;4.00;;;1.40;;
20399;SDS011;10359;53.596;22.520;2023-02-01T05:01:41;3.17;;;1.67;;
20399;SDS011;10359;53.596;22.520;2023-02-01T05:04:14;2.80;;;1.47;;
20399;SDS011;10359;53.596;22.520;2023-02-01T05:06:45;1.87;;;1.40;;
20399;SDS011;10359;53.596;22.520;2023-02-01T05:09:14;1.87;;;1.47;;
20399;SDS011;10359;53.596;22.520;2023-02-01T05:11:45;2.93;;;1.40;;
20399;SDS011;10359;53.596;22.520;2023-02-01T05:14:39;2.93;;;1.30;;
20399;SDS011;10359;53.596;22.520;2023-02-01T05:17:08;1.87;;;1.20;;
20399;SDS011;10359;53.596;22.520;2023-02-01T05:19:37;2.80;;;1.20;;
20399;SDS011;10359;53.596;22.520;2023-02-01T05:22:06;3.23;;;1.10;;
20399;SDS011;10359;53.596;22.520;2023-02-01T05:24:35;3.67;;;1.50;;
20399;SDS011;10359;53.596;22.520;2023-02-01T05:27:06;4.27;;;1.63;;
20399;SDS011;10359;53.596;22.520;2023-02-01T05:29:35;2.90;;;1.40;;
20399;SDS011;10359;53.596;22.520;2023-02-01T05:32:04;3.70;;;1.70;;
20399;SDS011;10359;53.596;22.520;2023-02-01T05:34:47;3.33;;;1.57;;
20399;SDS011;10359;53.596;22.520;2023-02-01T05:37:17;3.73;;;1.80;;
20399;SDS011;10359;53.596;22.520;2023-02-01T05:39:46;3.30;;;1.50;;
20399;SDS011;10359;53.596;22.520;2023-02-01T05:42:16;3.43;;;1.77;;
20399;SDS011;10359;53.596;22.520;2023-02-01T05:44:45;3.30;;;1.50;;
20399;SDS011;10359;53.596;22.520;2023-02-01T05:47:14;3.03;;;1.60;;
20399;SDS011;10359;53.596;22.520;2023-02-01T05:49:43;3.47;;;1.97;;
20399;SDS011;10359;53.596;22.520;2023-02-01T05:52:12;5.43;;;2.13;;
20399;SDS011;10359;53.596;22.520;2023-02-01T05:54:46;6.43;;;2.30;;
20399;SDS011;10359;53.596;22.520;2023-02-01T05:57:16;3.80;;;1.53;;
20399;SDS011;10359;53.596;22.520;2023-02-01T05:59:45;3.50;;;1.90;;
20399;SDS011;10359;53.596;22.520;2023-02-01T06:02:15;4.17;;;1.83;;
20399;SDS011;10359;53.596;22.520;2023-02-01T06:04:45;2.63;;;1.77;;
20399;SDS011;10359;53.596;22.520;2023-02-01T06:07:14;5.73;;;2.20;;
20399;SDS011;10359;53.596;22.520;2023-02-01T06:09:43;4.70;;;2.30;;
20399;SDS011;10359;53.596;22.520;2023-02-01T06:12:12;5.27;;;1.93;;
20399;SDS011;10359;53.596;22.520;2023-02-01T06:14:43;4.43;;;1.67;;
20399;SDS011;10359;53.596;22.520;2023-02-01T06:17:12;5.53;;;1.80;;
20399;SDS011;10359;53.596;22.520;2023-02-01T06:19:41;4.60;;;2.27;;
20399;SDS011;10359;53.596;22.520;2023-02-01T06:22:11;11.93;;;4.90;;
20399;SDS011;10359;53.596;22.520;2023-02-01T06:24:40;10.10;;;4.07;;
20399;SDS011;10359;53.596;22.520;2023-02-01T06:27:09;4.20;;;1.60;;
20399;SDS011;10359;53.596;22.520;2023-02-01T06:29:40;6.47;;;2.40;;
20399;SDS011;10359;53.596;22.520;2023-02-01T06:32:10;3.73;;;1.80;;
20399;SDS011;10359;53.596;22.520;2023-02-01T06:34:39;5.20;;;2.07;;
20399;SDS011;10359;53.596;22.520;2023-02-01T06:37:08;5.83;;;1.67;;
20399;SDS011;10359;53.596;22.520;2023-02-01T06:39:38;5.73;;;2.20;;
20399;SDS011;10359;53.596;22.520;2023-02-01T06:42:07;4.30;;;2.00;;
20399;SDS011;10359;53.596;22.520;2023-02-01T06:44:36;8.80;;;2.23;;
20399;SDS011;10359;53.596;22.520;2023-02-01T06:47:05;10.60;;;3.83;;
20399;SDS011;10359;53.596;22.520;2023-02-01T06:49:36;6.57;;;2.87;;
20399;SDS011;10359;53.596;22.520;2023-02-01T06:52:05;4.73;;;1.97;;
20399;SDS011;10359;53.596;22.520;2023-02-01T06:54:34;5.97;;;2.63;;
20399;SDS011;10359;53.596;22.520;2023-02-01T06:57:04;4.90;;;2.10;;
20399;SDS011;10359;53.596;22.520;2023-02-01T06:59:33;6.00;;;1.87;;
20399;SDS011;10359;53.596;22.520;2023-02-01T07:02:02;7.33;;;2.50;;
20399;SDS011;10359;53.596;22.520;2023-02-01T07:04:31;4.07;;;2.70;;
20399;SDS011;10359;53.596;22.520;2023-02-01T07:07:02;4.90;;;1.90;;
20399;SDS011;10359;53.596;22.520;2023-02-01T07:09:31;6.77;;;2.20;;
20399;SDS011;10359;53.596;22.520;2023-02-01T07:12:00;8.53;;;2.20;;
20399;SDS011;10359;53.596;22.520;2023-02-01T07:14:29;5.37;;;2.30;;
20399;SDS011;10359;53.596;22.520;2023-02-01T07:16:58;6.23;;;2.80;;
20399;SDS011;10359;53.596;22.520;2023-02-01T07:19:27;11.70;;;3.07;;
20399;SDS011;10359;53.596;22.520;2023-02-01T07:21:56;6.93;;;3.70;;
20399;SDS011;10359;53.596;22.520;2023-02-01T07:24:26;9.90;;;2.93;;
20399;SDS011;10359;53.596;22.520;2023-02-01T07:26:57;4.80;;;2.83;;
20399;SDS011;10359;53.596;22.520;2023-02-01T07:29:26;3.57;;;2.67;;
20399;SDS011;10359;53.596;22.520;2023-02-01T07:31:55;5.60;;;3.23;;
20399;SDS011;10359;53.596;22.520;2023-02-01T07:34:24;6.20;;;2.70;;
20399;SDS011;10359;53.596;22.520;2023-02-01T07:36:53;23.33;;;17.43;;
20399;SDS011;10359;53.596;22.520;2023-02-01T07:39:22;6.97;;;3.23;;
20399;SDS011;10359;53.596;22.520;2023-02-01T07:41:56;7.57;;;4.17;;
20399;SDS011;10359;53.596;22.520;2023-02-01T07:44:25;10.57;;;7.53;;
20399;SDS011;10359;53.596;22.520;2023-02-01T07:46:54;7.97;;;3.27;;
20399;SDS011;10359;53.596;22.520;2023-02-01T07:49:23;6.77;;;3.17;;
20399;SDS011;10359;53.596;22.520;2023-02-01T07:51:52;7.47;;;3.07;;
20399;SDS011;10359;53.596;22.520;2023-02-01T07:54:21;7.10;;;3.70;;
20399;SDS011;10359;53.596;22.520;2023-02-01T07:56:51;8.03;;;3.40;;
20399;SDS011;10359;53.596;22.520;2023-02-01T07:59:21;8.37;;;3.70;;
20399;SDS011;10359;53.596;22.520;2023-02-01T08:01:50;6.13;;;3.37;;
20399;SDS011;10359;53.596;22.520;2023-02-01T08:04:18;8.50;;;3.37;;
20399;SDS011;10359;53.596;22.520;2023-02-01T08:06:47;7.67;;;3.30;;
20399;SDS011;10359;53.596;22.520;2023-02-01T08:09:17;8.73;;;3.40;;
20399;SDS011;10359;53.596;22.520;2023-02-01T08:11:46;8.47;;;3.97;;
20399;SDS011;10359;53.596;22.520;2023-02-01T08:14:15;8.20;;;3.27;;
20399;SDS011;10359;53.596;22.520;2023-02-01T08:16:45;8.03;;;3.20;;
20399;SDS011;10359;53.596;22.520;2023-02-01T08:19:15;8.60;;;4.00;;
20399;SDS011;10359;53.596;22.520;2023-02-01T08:21:44;8.80;;;3.57;;
20399;SDS011;10359;53.596;22.520;2023-02-01T08:24:15;8.37;;;3.67;;
20399;SDS011;10359;53.596;22.520;2023-02-01T08:26:44;7.37;;;3.63;;
20399;SDS011;10359;53.596;22.520;2023-02-01T08:29:13;8.23;;;3.30;;
20399;SDS011;10359;53.596;22.520;2023-02-01T08:31:42;8.67;;;3.83;;
20399;SDS011;10359;53.596;22.520;2023-02-01T08:34:13;8.67;;;3.63;;
20399;SDS011;10359;53.596;22.520;2023-02-01T08:36:42;8.20;;;4.07;;
20399;SDS011;10359;53.596;22.520;2023-02-01T08:39:11;10.70;;;3.80;;
20399;SDS011;10359;53.596;22.520;2023-02-01T08:41:41;9.27;;;3.80;;
20399;SDS011;10359;53.596;22.520;2023-02-01T08:44:30;5.90;;;3.53;;
20399;SDS011;10359;53.596;22.520;2023-02-01T08:46:59;6.87;;;3.43;;
20399;SDS011;10359;53.596;22.520;2023-02-01T08:49:29;9.97;;;4.20;;
20399;SDS011;10359;53.596;22.520;2023-02-01T08:51:59;9.13;;;3.47;;
20399;SDS011;10359;53.596;22.520;2023-02-01T08:54:36;7.60;;;3.57;;
20399;SDS011;10359;53.596;22.520;2023-02-01T08:57:06;5.93;;;3.30;;
20399;SDS011;10359;53.596;22.520;2023-02-01T08:59:36;7.10;;;3.67;;
20399;SDS011;10359;53.596;22.520;2023-02-01T09:02:05;5.67;;;2.90;;
20399;SDS011;10359;53.596;22.520;2023-02-01T09:04:38;10.47;;;3.20;;
20399;SDS011;10359;53.596;22.520;2023-02-01T09:07:07;6.57;;;3.63;;
20399;SDS011;10359;53.596;22.520;2023-02-01T09:09:37;10.17;;;5.60;;
20399;SDS011;10359;53.596;22.520;2023-02-01T09:12:06;7.63;;;4.40;;
20399;SDS011;10359;53.596;22.520;2023-02-01T09:14:35;8.47;;;3.83;;
20399;SDS011;10359;53.596;22.520;2023-02-01T09:17:05;10.80;;;3.80;;
20399;SDS011;10359;53.596;22.520;2023-02-01T09:19:34;8.07;;;3.43;;
20399;SDS011;10359;53.596;22.520;2023-02-01T09:22:04;7.47;;;3.47;;
20399;SDS011;10359;53.596;22.520;2023-02-01T09:24:33;7.87;;;3.33;;
20399;SDS011;10359;53.596;22.520;2023-02-01T09:27:02;8.10;;;3.33;;
20399;SDS011;10359;53.596;22.520;2023-02-01T09:29:32;6.10;;;3.13;;
20399;SDS011;10359;53.596;22.520;2023-02-01T09:32:01;8.67;;;3.00;;
20399;SDS011;10359;53.596;22.520;2023-02-01T09:34:31;6.70;;;3.47;;
20399;SDS011;10359;53.596;22.520;2023-02-01T09:37:01;5.50;;;3.53;;
20399;SDS011;10359;53.596;22.520;2023-02-01T09:39:32;6.20;;;4.03;;
20399;SDS011;10359;53.596;22.520;2023-02-01T09:42:04;7.27;;;3.33;;
20399;SDS011;10359;53.596;22.520;2023-02-01T09:44:48;6.83;;;3.10;;
20399;SDS011;10359;53.596;22.520;2023-02-01T09:47:27;6.87;;;3.83;;
20399;SDS011;10359;53.596;22.520;2023-02-01T09:49:58;4.97;;;3.37;;
20399;SDS011;10359;53.596;22.520;2023-02-01T09:52:34;5.93;;;3.50;;
20399;SDS011;10359;53.596;22.520;2023-02-01T09:55:10;7.37;;;3.57;;
20399;SDS011;10359;53.596;22.520;2023-02-01T09:57:45;7.37;;;3.50;;
20399;SDS011;10359;53.596;22.520;2023-02-01T10:00:20;5.43;;;3.07;;
20399;SDS011;10359;53.596;22.520;2023-02-01T10:02:53;6.33;;;3.40;;
20399;SDS011;10359;53.596;22.520;2023-02-01T10:05:27;6.27;;;3.33;;
20399;SDS011;10359;53.596;22.520;2023-02-01T10:08:18;6.50;;;3.80;;
20399;SDS011;10359;53.596;22.520;2023-02-01T10:10:56;6.60;;;3.03;;
20399;SDS011;10359;53.596;22.520;2023-02-01T10:13:36;7.33;;;3.43;;
20399;SDS011;10359;53.596;22.520;2023-02-01T10:16:14;7.23;;;3.10;;
20399;SDS011;10359;53.596;22.520;2023-02-01T10:18:56;9.87;;;4.33;;
20399;SDS011;10359;53.596;22.520;2023-02-01T10:21:36;7.60;;;3.10;;
20399;SDS011;10359;53.596;22.520;2023-02-01T10:24:20;8.17;;;3.40;;
20399;SDS011;10359;53.596;22.520;2023-02-01T10:27:10;8.53;;;3.13;;
20399;SDS011;10359;53.596;22.520;2023-02-01T10:29:43;4.10;;;2.80;;
20399;SDS011;10359;53.596;22.520;2023-02-01T10:32:16;5.67;;;2.90;;
20399;SDS011;10359;53.596;22.520;2023-02-01T10:34:48;7.37;;;2.97;;
20399;SDS011;10359;53.596;22.520;2023-02-01T10:37:26;9.27;;;3.37;;
20399;SDS011;10359;53.596;22.520;2023-02-01T10:39:58;5.60;;;2.80;;
20399;SDS011;10359;53.596;22.520;2023-02-01T10:42:33;5.20;;;2.80;;
20399;SDS011;10359;53.596;22.520;2023-02-01T10:45:03;5.90;;;3.00;;
20399;SDS011;10359;53.596;22.520;2023-02-01T10:47:34;4.33;;;2.73;;
20399;SDS011;10359;53.596;22.520;2023-02-01T10:50:05;7.03;;;2.93;;
20399;SDS011;10359;53.596;22.520;2023-02-01T10:52:46;8.83;;;3.00;;
20399;SDS011;10359;53.596;22.520;2023-02-01T10:55:32;4.53;;;2.93;;
20399;SDS011;10359;53.596;22.520;2023-02-01T10:58:17;6.23;;;2.67;;
20399;SDS011;10359;53.596;22.520;2023-02-01T11:00:48;6.03;;;3.33;;
20399;SDS011;10359;53.596;22.520;2023-02-01T11:03:32;4.43;;;2.97;;
20399;SDS011;10359;53.596;22.520;2023-02-01T11:06:09;5.80;;;3.00;;
20399;SDS011;10359;53.596;22.520;2023-02-01T11:08:47;6.97;;;2.60;;
20399;SDS011;10359;53.596;22.520;2023-02-01T11:11:18;5.17;;;2.60;;
20399;SDS011;10359;53.596;22.520;2023-02-01T11:13:53;7.57;;;3.00;;
20399;SDS011;10359;53.596;22.520;2023-02-01T11:16:29;5.23;;;2.90;;
20399;SDS011;10359;53.596;22.520;2023-02-01T11:19:01;5.13;;;2.80;;
20399;SDS011;10359;53.596;22.520;2023-02-01T11:21:31;7.27;;;2.93;;
20399;SDS011;10359;53.596;22.520;2023-02-01T11:24:05;5.00;;;2.77;;
20399;SDS011;10359;53.596;22.520;2023-02-01T11:26:44;6.10;;;3.13;;
20399;SDS011;10359;53.596;22.520;2023-02-01T11:29:17;6.20;;;2.83;;
20399;SDS011;10359;53.596;22.520;2023-02-01T11:31:50;6.93;;;3.30;;
20399;SDS011;10359;53.596;22.520;2023-02-01T11:34:20;6.80;;;3.20;;
20399;SDS011;10359;53.596;22.520;2023-02-01T11:36:53;8.03;;;3.53;;
20399;SDS011;10359;53.596;22.520;2023-02-01T11:39:28;13.53;;;4.93;;
20399;SDS011;10359;53.596;22.520;2023-02-01T11:42:00;8.63;;;3.30;;
20399;SDS011;10359;53.596;22.520;2023-02-01T11:44:35;9.27;;;3.90;;
20399;SDS011;10359;53.596;22.520;2023-02-01T11:47:24;5.43;;;2.80;;
20399;SDS011;10359;53.596;22.520;2023-02-01T11:49:55;16.57;;;7.53;;
20399;SDS011;10359;53.596;22.520;2023-02-01T11:52:41;6.10;;;3.20;;
20399;SDS011;10359;53.596;22.520;2023-02-01T11:55:28;8.90;;;3.23;;
20399;SDS011;10359;53.596;22.520;2023-02-01T11:58:11;12.37;;;6.77;;
20399;SDS011;10359;53.596;22.520;2023-02-01T12:00:54;7.10;;;2.70;;
20399;SDS011;10359;53.596;22.520;2023-02-01T12:03:38;8.13;;;3.37;;
20399;SDS011;10359;53.596;22.520;2023-02-01T12:06:22;6.67;;;2.53;;
20399;SDS011;10359;53.596;22.520;2023-02-01T12:09:08;12.30;;;4.10;;
20399;SDS011;10359;53.596;22.520;2023-02-01T12:11:53;6.90;;;3.57;;
20399;SDS011;10359;53.596;22.520;2023-02-01T12:14:38;6.90;;;2.70;;
20399;SDS011;10359;53.596;22.520;2023-02-01T12:23:59;3.33;;;1.50;;
20399;SDS011;10359;53.596;22.520;2023-02-01T12:29:42;3.40;;;1.73;;
20399;SDS011;10359;53.596;22.520;2023-02-01T12:32:32;8.57;;;2.77;;
20399;SDS011;10359;53.596;22.520;2023-02-01T12:38:22;6.97;;;2.50;;
20399;SDS011;10359;53.596;22.520;2023-02-01T12:41:08;5.10;;;2.67;;
20399;SDS011;10359;53.596;22.520;2023-02-01T12:43:45;6.63;;;3.17;;
20399;SDS011;10359;53.596;22.520;2023-02-01T12:46:26;6.57;;;2.70;;
20399;SDS011;10359;53.596;22.520;2023-02-01T12:49:00;7.83;;;2.67;;
20399;SDS011;10359;53.596;22.520;2023-02-01T12:51:36;8.30;;;2.70;;
20399;SDS011;10359;53.596;22.520;2023-02-01T12:54:09;10.70;;;3.30;;
20399;SDS011;10359;53.596;22.520;2023-02-01T12:56:48;4.03;;;1.93;;
20399;SDS011;10359;53.596;22.520;2023-02-01T12:59:23;6.07;;;2.37;;
20399;SDS011;10359;53.596;22.520;2023-02-01T13:01:58;4.93;;;2.30;;
20399;SDS011;10359;53.596;22.520;2023-02-01T13:04:33;5.43;;;2.20;;
20399;SDS011;10359;53.596;22.520;2023-02-01T13:07:09;5.43;;;2.13;;
20399;SDS011;10359;53.596;22.520;2023-02-01T13:09:44;5.13;;;2.77;;
20399;SDS011;10359;53.596;22.520;2023-02-01T13:12:18;3.53;;;2.43;;
20399;SDS011;10359;53.596;22.520;2023-02-01T13:14:53;7.07;;;2.70;;
20399;SDS011;10359;53.596;22.520;2023-02-01T13:17:26;5.67;;;2.70;;
20399;SDS011;10359;53.596;22.520;2023-02-01T13:19:59;7.87;;;2.73;;
20399;SDS011;10359;53.596;22.520;2023-02-01T13:22:34;2.73;;;1.63;;
20399;SDS011;10359;53.596;22.520;2023-02-01T13:25:11;7.77;;;2.90;;
20399;SDS011;10359;53.596;22.520;2023-02-01T13:27:42;7.63;;;2.83;;
20399;SDS011;10359;53.596;22.520;2023-02-01T13:30:22;5.80;;;2.23;;
20399;SDS011;10359;53.596;22.520;2023-02-01T13:33:00;6.90;;;3.17;;
20399;SDS011;10359;53.596;22.520;2023-02-01T13:36:15;7.77;;;3.20;;
20399;SDS011;10359;53.596;22.520;2023-02-01T13:39:09;6.47;;;2.70;;
20399;SDS011;10359;53.596;22.520;2023-02-01T13:42:03;5.07;;;2.60;;
20399;SDS011;10359;53.596;22.520;2023-02-01T13:44:42;9.37;;;2.57;;
20399;SDS011;10359;53.596;22.520;2023-02-01T13:47:18;6.17;;;2.17;;
20399;SDS011;10359;53.596;22.520;2023-02-01T13:49:54;5.37;;;2.10;;
20399;SDS011;10359;53.596;22.520;2023-02-01T13:52:27;5.60;;;2.60;;
20399;SDS011;10359;53.596;22.520;2023-02-01T13:55:02;5.47;;;2.40;;
20399;SDS011;10359;53.596;22.520;2023-02-01T13:57:43;5.57;;;2.13;;
20399;SDS011;10359;53.596;22.520;2023-02-01T14:00:26;5.03;;;2.30;;
20399;SDS011;10359;53.596;22.520;2023-02-01T14:03:08;7.47;;;2.23;;
20399;SDS011;10359;53.596;22.520;2023-02-01T14:06:02;5.97;;;2.33;;
20399;SDS011;10359;53.596;22.520;2023-02-01T14:11:49;6.00;;;2.37;;
20399;SDS011;10359;53.596;22.520;2023-02-01T14:23:23;7.23;;;2.83;;
20399;SDS011;10359;53.596;22.520;2023-02-01T14:26:08;6.20;;;2.20;;
20399;SDS011;10359;53.596;22.520;2023-02-01T14:28:55;5.93;;;2.60;;
20399;SDS011;10359;53.596;22.520;2023-02-01T14:31:37;5.47;;;2.60;;
20399;SDS011;10359;53.596;22.520;2023-02-01T14:34:20;5.10;;;2.70;;
20399;SDS011;10359;53.596;22.520;2023-02-01T14:36:56;4.93;;;2.67;;
20399;SDS011;10359;53.596;22.520;2023-02-01T14:39:32;5.80;;;2.57;;
20399;SDS011;10359;53.596;22.520;2023-02-01T14:42:23;6.03;;;2.80;;
20399;SDS011;10359;53.596;22.520;2023-02-01T14:51:06;8.40;;;2.50;;
20399;SDS011;10359;53.596;22.520;2023-02-01T14:53:39;6.93;;;2.50;;
20399;SDS011;10359;53.596;22.520;2023-02-01T14:56:11;6.40;;;2.43;;
20399;SDS011;10359;53.596;22.520;2023-02-01T14:58:48;5.33;;;2.60;;
20399;SDS011;10359;53.596;22.520;2023-02-01T15:01:26;7.50;;;2.60;;
20399;SDS011;10359;53.596;22.520;2023-02-01T15:04:00;10.23;;;3.20;;
20399;SDS011;10359;53.596;22.520;2023-02-01T15:06:33;10.43;;;2.60;;
20399;SDS011;10359;53.596;22.520;2023-02-01T15:09:08;7.83;;;3.07;;
20399;SDS011;10359;53.596;22.520;2023-02-01T15:11:59;10.67;;;3.37;;
20399;SDS011;10359;53.596;22.520;2023-02-01T15:14:30;9.93;;;3.10;;
20399;SDS011;10359;53.596;22.520;2023-02-01T15:17:02;9.80;;;3.57;;
20399;SDS011;10359;53.596;22.520;2023-02-01T15:19:31;7.97;;;3.20;;
20399;SDS011;10359;53.596;22.520;2023-02-01T15:22:00;10.13;;;4.03;;
20399;SDS011;10359;53.596;22.520;2023-02-01T15:24:30;9.43;;;3.30;;
20399;SDS011;10359;53.596;22.520;2023-02-01T15:27:02;8.50;;;3.77;;
20399;SDS011;10359;53.596;22.520;2023-02-01T15:29:33;9.33;;;3.87;;
20399;SDS011;10359;53.596;22.520;2023-02-01T15:32:04;13.07;;;3.97;;
20399;SDS011;10359;53.596;22.520;2023-02-01T15:34:46;9.33;;;3.57;;
20399;SDS011;10359;53.596;22.520;2023-02-01T15:37:16;7.47;;;4.03;;
20399;SDS011;10359;53.596;22.520;2023-02-01T15:40:14;8.70;;;3.63;;
20399;SDS011;10359;53.596;22.520;2023-02-01T15:42:51;7.37;;;3.70;;
20399;SDS011;10359;53.596;22.520;2023-02-01T15:45:21;7.57;;;3.67;;
20399;SDS011;10359;53.596;22.520;2023-02-01T15:47:55;8.80;;;3.80;;
20399;SDS011;10359;53.596;22.520;2023-02-01T15:50:26;6.53;;;3.83;;
20399;SDS011;10359;53.596;22.520;2023-02-01T15:52:58;8.67;;;4.43;;
20399;SDS011;10359;53.596;22.520;2023-02-01T15:55:31;8.63;;;3.70;;
20399;SDS011;10359;53.596;22.520;2023-02-01T15:58:07;8.07;;;4.27;;
20399;SDS011;10359;53.596;22.520;2023-02-01T16:00:41;7.83;;;3.93;;